createdAt,value
2018-01-17T00:00:41.783Z,0
2018-01-17T00:01:50.778Z,0
2018-01-17T00:03:00.288Z,0
2018-01-17T00:04:10.097Z,0
2018-01-17T00:05:20.536Z,0
2018-01-17T00:06:30.277Z,0
2018-01-17T00:07:39.961Z,0
2018-01-17T00:08:49.817Z,0
2018-01-17T00:09:59.729Z,0
2018-01-17T00:11:09.424Z,0
2018-01-17T00:12:19.046Z,0
2018-01-17T00:13:29.154Z,0
2018-01-17T00:14:38.626Z,0
2018-01-17T00:15:48.745Z,0
2018-01-17T00:16:57.989Z,0
2018-01-17T00:18:07.561Z,0
2018-01-17T00:19:16.751Z,0
2018-01-17T00:20:26.891Z,0
2018-01-17T00:21:36.569Z,0
2018-01-17T00:22:47.122Z,0
2018-01-17T00:23:56.742Z,0
2018-01-17T00:25:06.015Z,0
2018-01-17T00:26:15.547Z,0
2018-01-17T00:27:25.345Z,0
2018-01-17T00:28:34.828Z,0
2018-01-17T00:29:44.716Z,0
2018-01-17T00:30:54.503Z,0
2018-01-17T00:32:03.954Z,0
2018-01-17T00:33:13.793Z,0
2018-01-17T00:34:23.516Z,0
2018-01-17T00:35:32.710Z,0
2018-01-17T00:36:42.212Z,0
2018-01-17T00:37:52.069Z,0
2018-01-17T00:39:02.057Z,0
2018-01-17T00:40:11.773Z,0
2018-01-17T00:41:21.492Z,0
2018-01-17T00:42:30.677Z,0
2018-01-17T00:43:39.666Z,0
2018-01-17T00:44:49.435Z,0
2018-01-17T00:45:59.168Z,0
2018-01-17T00:47:08.362Z,0
2018-01-17T00:48:17.880Z,0
2018-01-17T00:49:27.331Z,0
2018-01-17T00:50:36.798Z,0
2018-01-17T00:51:45.992Z,0
2018-01-17T00:52:55.468Z,0
2018-01-17T00:54:05.203Z,0
2018-01-17T00:55:14.754Z,0
2018-01-17T00:56:24.481Z,0
2018-01-17T00:57:33.978Z,0
2018-01-17T00:58:43.743Z,0
2018-01-17T00:59:53.462Z,0
2018-01-17T01:01:02.912Z,0
2018-01-17T01:02:12.107Z,0
2018-01-17T01:03:21.607Z,0
2018-01-17T01:04:31.593Z,0
2018-01-17T01:05:41.070Z,0
2018-01-17T01:06:50.572Z,0
2018-01-17T01:07:59.750Z,0
2018-01-17T01:09:09.734Z,0
2018-01-17T01:10:19.461Z,0
2018-01-17T01:11:29.223Z,0
2018-01-17T01:12:38.543Z,0
2018-01-17T01:13:48.277Z,0
2018-01-17T01:14:58.314Z,0
2018-01-17T01:16:07.275Z,0
2018-01-17T01:17:16.200Z,0
2018-01-17T01:18:25.460Z,0
2018-01-17T01:19:34.932Z,0
2018-01-17T01:20:44.418Z,0
2018-01-17T01:21:54.151Z,0
2018-01-17T01:23:03.607Z,4
2018-01-17T01:24:13.069Z,0
2018-01-17T01:25:22.528Z,4
2018-01-17T01:26:32.257Z,0
2018-01-17T01:27:42.321Z,4
2018-01-17T01:28:51.781Z,4
2018-01-17T01:30:01.591Z,0
2018-01-17T01:31:11.433Z,0
2018-01-17T01:32:21.235Z,0
2018-01-17T01:33:30.519Z,0
2018-01-17T01:34:40.073Z,0
2018-01-17T01:35:49.610Z,0
2018-01-17T01:36:59.220Z,0
2018-01-17T01:38:08.797Z,0
2018-01-17T01:39:18.062Z,0
2018-01-17T01:40:28.068Z,0
2018-01-17T01:41:37.032Z,0
2018-01-17T01:42:46.697Z,0
2018-01-17T01:43:55.640Z,0
2018-01-17T01:45:05.194Z,4
2018-01-17T01:46:14.998Z,4
2018-01-17T01:47:24.272Z,0
2018-01-17T01:48:33.798Z,0
2018-01-17T01:49:43.053Z,4
2018-01-17T01:50:52.852Z,4
2018-01-17T01:52:02.540Z,4
2018-01-17T01:53:12.526Z,4
2018-01-17T01:54:22.097Z,4
2018-01-17T01:55:31.898Z,4
2018-01-17T01:56:41.448Z,0
2018-01-17T01:57:50.978Z,0
2018-01-17T01:59:00.781Z,0
2018-01-17T02:00:10.307Z,0
2018-01-17T02:01:20.116Z,0
2018-01-17T02:02:29.913Z,0
2018-01-17T02:03:39.715Z,0
2018-01-17T02:04:49.245Z,0
2018-01-17T02:05:58.792Z,0
2018-01-17T02:07:08.601Z,0
2018-01-17T02:08:18.427Z,4
2018-01-17T02:09:27.965Z,4
2018-01-17T02:10:37.764Z,4
2018-01-17T02:11:47.033Z,0
2018-01-17T02:12:56.847Z,0
2018-01-17T02:14:06.938Z,4
2018-01-17T02:15:16.852Z,0
2018-01-17T02:16:26.115Z,0
2018-01-17T02:17:35.392Z,0
2018-01-17T02:18:44.860Z,0
2018-01-17T02:19:54.889Z,0
2018-01-17T02:21:04.613Z,0
2018-01-17T02:22:13.803Z,0
2018-01-17T02:23:23.302Z,0
2018-01-17T02:24:32.799Z,0
2018-01-17T02:25:42.006Z,0
2018-01-17T02:26:51.743Z,0
2018-01-17T02:28:00.939Z,0
2018-01-17T02:29:09.897Z,0
2018-01-17T02:30:19.629Z,0
2018-01-17T02:31:28.883Z,0
2018-01-17T02:32:38.401Z,0
2018-01-17T02:33:47.883Z,0
2018-01-17T02:34:57.613Z,0
2018-01-17T02:36:07.346Z,0
2018-01-17T02:37:17.139Z,0
2018-01-17T02:38:26.878Z,0
2018-01-17T02:39:36.866Z,0
2018-01-17T02:40:46.321Z,0
2018-01-17T02:41:55.787Z,0
2018-01-17T02:43:05.242Z,0
2018-01-17T02:44:14.977Z,0
2018-01-17T02:45:24.974Z,0
2018-01-17T02:46:34.437Z,0
2018-01-17T02:47:44.502Z,0
2018-01-17T02:48:53.427Z,0
2018-01-17T02:50:03.416Z,0
2018-01-17T02:51:12.612Z,0
2018-01-17T02:52:22.367Z,0
2018-01-17T02:53:31.575Z,0
2018-01-17T02:54:41.294Z,0
2018-01-17T02:55:50.492Z,0
2018-01-17T02:57:00.539Z,0
2018-01-17T02:58:09.991Z,0
2018-01-17T02:59:19.452Z,0
2018-01-17T03:00:28.645Z,0
2018-01-17T03:01:38.090Z,0
2018-01-17T03:02:48.100Z,0
2018-01-17T03:03:57.575Z,0
2018-01-17T03:05:07.089Z,0
2018-01-17T03:06:16.537Z,0
2018-01-17T03:07:26.267Z,0
2018-01-17T03:08:36.038Z,0
2018-01-17T03:09:45.769Z,0
2018-01-17T03:10:55.483Z,0
2018-01-17T03:12:04.671Z,0
2018-01-17T03:13:13.878Z,0
2018-01-17T03:14:23.330Z,0
2018-01-17T03:15:32.260Z,0
2018-01-17T03:16:41.720Z,0
2018-01-17T03:17:51.714Z,0
2018-01-17T03:19:01.175Z,0
2018-01-17T03:20:10.890Z,0
2018-01-17T03:21:19.833Z,0
2018-01-17T03:22:29.045Z,0
2018-01-17T03:23:38.262Z,0
2018-01-17T03:24:48.000Z,0
2018-01-17T03:25:57.757Z,0
2018-01-17T03:27:07.500Z,0
2018-01-17T03:28:17.510Z,0
2018-01-17T03:29:27.010Z,0
2018-01-17T03:30:36.744Z,0
2018-01-17T03:31:46.026Z,0
2018-01-17T03:32:55.756Z,0
2018-01-17T03:34:04.960Z,0
2018-01-17T03:35:13.880Z,0
2018-01-17T03:36:23.339Z,0
2018-01-17T03:37:33.060Z,0
2018-01-17T03:38:42.520Z,0
2018-01-17T03:39:52.253Z,0
2018-01-17T03:41:01.714Z,0
2018-01-17T03:42:10.646Z,0
2018-01-17T03:43:20.104Z,0
2018-01-17T03:44:29.825Z,0
2018-01-17T03:45:39.286Z,0
2018-01-17T03:46:48.994Z,0
2018-01-17T03:47:58.189Z,0
2018-01-17T03:49:07.908Z,0
2018-01-17T03:50:17.397Z,0
2018-01-17T03:51:26.329Z,0
2018-01-17T03:52:36.054Z,0
2018-01-17T03:53:44.982Z,0
2018-01-17T03:54:54.174Z,0
2018-01-17T03:56:03.914Z,0
2018-01-17T03:57:13.913Z,0
2018-01-17T03:58:23.372Z,0
2018-01-17T03:59:32.848Z,0
2018-01-17T04:00:42.301Z,0
2018-01-17T04:01:52.045Z,0
2018-01-17T04:03:01.520Z,0
2018-01-17T04:04:10.964Z,0
2018-01-17T04:05:20.688Z,0
2018-01-17T04:06:30.139Z,0
2018-01-17T04:07:39.591Z,0
2018-01-17T04:08:49.054Z,0
2018-01-17T04:09:58.773Z,0
2018-01-17T04:11:08.505Z,0
2018-01-17T04:12:18.219Z,0
2018-01-17T04:13:27.684Z,0
2018-01-17T04:14:37.694Z,0
2018-01-17T04:15:47.423Z,0
2018-01-17T04:16:57.149Z,0
2018-01-17T04:18:06.350Z,0
2018-01-17T04:19:15.816Z,0
2018-01-17T04:20:25.284Z,0
2018-01-17T04:21:35.125Z,0
2018-01-17T04:22:44.848Z,0
2018-01-17T04:23:54.562Z,0
2018-01-17T04:25:04.297Z,0
2018-01-17T04:26:14.278Z,0
2018-01-17T04:27:24.290Z,0
2018-01-17T04:28:33.500Z,0
2018-01-17T04:29:42.970Z,0
2018-01-17T04:30:52.178Z,0
2018-01-17T04:32:01.624Z,0
2018-01-17T04:33:10.818Z,0
2018-01-17T04:34:20.805Z,0
2018-01-17T04:35:30.259Z,0
2018-01-17T04:36:39.457Z,0
2018-01-17T04:37:49.174Z,0
2018-01-17T04:38:58.903Z,0
2018-01-17T04:40:08.370Z,0
2018-01-17T04:41:18.371Z,0
2018-01-17T04:42:28.346Z,0
2018-01-17T04:43:37.554Z,0
2018-01-17T04:44:47.535Z,0
2018-01-17T04:45:57.044Z,0
2018-01-17T04:47:06.501Z,0
2018-01-17T04:48:15.955Z,0
2018-01-17T04:49:25.682Z,0
2018-01-17T04:50:34.875Z,0
2018-01-17T04:51:44.329Z,0
2018-01-17T04:52:53.796Z,0
2018-01-17T04:54:02.726Z,0
2018-01-17T04:55:12.449Z,0
2018-01-17T04:56:21.414Z,0
2018-01-17T04:57:31.186Z,0
2018-01-17T04:58:40.975Z,0
2018-01-17T04:59:50.709Z,0
2018-01-17T05:00:59.913Z,0
2018-01-17T05:02:09.656Z,0
2018-01-17T05:03:19.391Z,0
2018-01-17T05:04:28.845Z,0
2018-01-17T05:05:38.038Z,0
2018-01-17T05:06:47.252Z,0
2018-01-17T05:07:56.173Z,0
2018-01-17T05:09:05.642Z,0
2018-01-17T05:10:15.132Z,0
2018-01-17T05:11:24.861Z,0
2018-01-17T05:12:34.334Z,0
2018-01-17T05:13:44.069Z,0
2018-01-17T05:14:53.823Z,0
2018-01-17T05:16:03.019Z,0
2018-01-17T05:17:12.476Z,0
2018-01-17T05:18:21.950Z,0
2018-01-17T05:19:31.154Z,0
2018-01-17T05:20:40.615Z,0
2018-01-17T05:21:50.619Z,0
2018-01-17T05:23:00.336Z,0
2018-01-17T05:24:10.065Z,0
2018-01-17T05:25:19.524Z,0
2018-01-17T05:26:29.268Z,0
2018-01-17T05:27:38.735Z,0
2018-01-17T05:28:48.475Z,0
2018-01-17T05:29:58.522Z,0
2018-01-17T05:31:07.978Z,0
2018-01-17T05:32:17.450Z,0
2018-01-17T05:33:27.198Z,0
2018-01-17T05:34:36.662Z,0
2018-01-17T05:35:46.124Z,0
2018-01-17T05:36:55.606Z,0
2018-01-17T05:38:04.807Z,0
2018-01-17T05:39:14.262Z,0
2018-01-17T05:40:23.994Z,0
2018-01-17T05:41:33.715Z,0
2018-01-17T05:42:43.723Z,0
2018-01-17T05:43:53.227Z,0
2018-01-17T05:45:02.686Z,0
2018-01-17T05:46:12.408Z,0
2018-01-17T05:47:21.873Z,0
2018-01-17T05:48:31.338Z,0
2018-01-17T05:49:41.061Z,0
2018-01-17T05:50:50.289Z,0
2018-01-17T05:51:59.779Z,0
2018-01-17T05:53:09.513Z,0
2018-01-17T05:54:19.008Z,0
2018-01-17T05:55:28.203Z,0
2018-01-17T05:56:38.192Z,0
2018-01-17T05:57:47.647Z,0
2018-01-17T05:58:57.363Z,0
2018-01-17T06:00:06.820Z,0
2018-01-17T06:01:16.807Z,0
2018-01-17T06:02:26.271Z,0
2018-01-17T06:03:36.071Z,0
2018-01-17T06:04:45.314Z,0
2018-01-17T06:05:55.033Z,0
2018-01-17T06:07:05.022Z,0
2018-01-17T06:08:14.754Z,0
2018-01-17T06:09:24.477Z,0
2018-01-17T06:10:33.698Z,0
2018-01-17T06:11:43.448Z,0
2018-01-17T06:12:53.436Z,0
2018-01-17T06:14:02.629Z,0
2018-01-17T06:15:12.350Z,0
2018-01-17T06:16:22.136Z,0
2018-01-17T06:17:32.116Z,0
2018-01-17T06:18:41.580Z,0
2018-01-17T06:19:51.319Z,0
2018-01-17T06:21:01.082Z,0
2018-01-17T06:22:10.281Z,0
2018-01-17T06:23:20.313Z,0
2018-01-17T06:24:29.790Z,0
2018-01-17T06:25:39.526Z,0
2018-01-17T06:26:48.992Z,0
2018-01-17T06:27:58.589Z,0
2018-01-17T06:29:08.614Z,4
2018-01-17T06:30:18.336Z,4
2018-01-17T06:31:27.802Z,4
2018-01-17T06:32:37.520Z,4
2018-01-17T06:33:47.278Z,4
2018-01-17T06:34:56.785Z,4
2018-01-17T06:36:06.024Z,4
2018-01-17T06:37:15.480Z,4
2018-01-17T06:38:25.484Z,4
2018-01-17T06:39:34.961Z,4
2018-01-17T06:40:44.689Z,4
2018-01-17T06:41:54.432Z,4
2018-01-17T06:43:03.889Z,4
2018-01-17T06:44:13.607Z,4
2018-01-17T06:45:23.347Z,4
2018-01-17T06:46:32.803Z,4
2018-01-17T06:47:42.003Z,4
2018-01-17T06:48:51.740Z,4
2018-01-17T06:50:01.489Z,4
2018-01-17T06:51:11.228Z,4
2018-01-17T06:52:20.975Z,4
2018-01-17T06:53:30.969Z,4
2018-01-17T06:54:39.889Z,0
2018-01-17T06:55:49.654Z,0
2018-01-17T06:56:58.847Z,0
2018-01-17T06:58:08.311Z,4
2018-01-17T06:59:17.247Z,4
2018-01-17T07:00:26.738Z,4
2018-01-17T07:01:35.923Z,4
2018-01-17T07:02:45.392Z,4
2018-01-17T07:03:54.856Z,4
2018-01-17T07:05:04.576Z,8
2018-01-17T07:06:14.037Z,4
2018-01-17T07:07:23.762Z,4
2018-01-17T07:08:33.229Z,4
2018-01-17T07:09:42.198Z,4
2018-01-17T07:10:51.658Z,8
2018-01-17T07:12:01.395Z,8
2018-01-17T07:13:10.589Z,8
2018-01-17T07:14:20.320Z,8
2018-01-17T07:15:29.512Z,12
2018-01-17T07:16:39.236Z,12
2018-01-17T07:17:48.702Z,12
2018-01-17T07:18:58.427Z,8
2018-01-17T07:20:08.153Z,8
2018-01-17T07:21:17.890Z,12
2018-01-17T07:22:27.610Z,12
2018-01-17T07:23:37.150Z,16
2018-01-17T07:24:46.611Z,16
2018-01-17T07:25:56.334Z,20
2018-01-17T07:27:06.053Z,24
2018-01-17T07:28:15.509Z,28
2018-01-17T07:29:25.246Z,40
2018-01-17T07:30:34.458Z,40
2018-01-17T07:31:44.244Z,32
2018-01-17T07:32:53.428Z,44
2018-01-17T07:34:02.624Z,64
2018-01-17T07:35:12.083Z,52
2018-01-17T07:36:21.538Z,52
2018-01-17T07:37:31.057Z,56
2018-01-17T07:38:40.514Z,44
2018-01-17T07:39:49.978Z,32
2018-01-17T07:40:59.961Z,24
2018-01-17T07:42:09.735Z,20
2018-01-17T07:43:19.230Z,24
2018-01-17T07:44:28.960Z,28
2018-01-17T07:45:38.960Z,28
2018-01-17T07:46:48.164Z,32
2018-01-17T07:47:57.366Z,44
2018-01-17T07:49:06.896Z,48
2018-01-17T07:50:16.750Z,40
2018-01-17T07:51:26.471Z,36
2018-01-17T07:52:35.830Z,24
2018-01-17T07:53:45.628Z,24
2018-01-17T07:54:55.086Z,24
2018-01-17T07:56:04.542Z,24
2018-01-17T07:57:14.027Z,28
2018-01-17T07:58:23.510Z,32
2018-01-17T07:59:32.723Z,36
2018-01-17T08:00:41.386Z,44
2018-01-17T08:01:51.110Z,52
2018-01-17T08:03:00.563Z,56
2018-01-17T08:04:10.037Z,60
2018-01-17T08:05:19.226Z,56
2018-01-17T08:06:28.697Z,52
2018-01-17T08:07:37.641Z,64
2018-01-17T08:08:47.400Z,92
2018-01-17T08:09:56.358Z,112
2018-01-17T08:11:07.002Z,160
2018-01-17T08:12:16.992Z,132
2018-01-17T08:13:25.940Z,120
2018-01-17T08:14:35.664Z,112
2018-01-17T08:15:45.661Z,128
2018-01-17T08:16:54.884Z,180
2018-01-17T08:18:04.899Z,224
2018-01-17T08:19:14.413Z,376
2018-01-17T08:20:23.879Z,456
2018-01-17T08:21:33.861Z,480
2018-01-17T08:22:43.619Z,552
2018-01-17T08:23:53.076Z,572
2018-01-17T08:25:02.643Z,576
2018-01-17T08:26:12.235Z,528
2018-01-17T08:27:21.729Z,480
2018-01-17T08:28:31.186Z,428
2018-01-17T08:29:40.658Z,476
2018-01-17T08:30:49.846Z,384
2018-01-17T08:31:59.503Z,424
2018-01-17T08:33:09.505Z,404
2018-01-17T08:34:19.235Z,380
2018-01-17T08:35:28.981Z,380
2018-01-17T08:36:38.973Z,332
2018-01-17T08:37:48.423Z,360
2018-01-17T08:38:57.637Z,412
2018-01-17T08:40:07.367Z,332
2018-01-17T08:41:16.574Z,300
2018-01-17T08:42:26.558Z,308
2018-01-17T08:43:36.295Z,220
2018-01-17T08:44:46.044Z,220
2018-01-17T08:45:56.156Z,288
2018-01-17T08:47:06.173Z,360
2018-01-17T08:48:16.238Z,392
2018-01-17T08:49:26.024Z,532
2018-01-17T08:50:35.488Z,656
2018-01-17T08:51:44.412Z,732
2018-01-17T08:52:53.342Z,748
2018-01-17T08:54:02.739Z,680
2018-01-17T08:55:12.753Z,784
2018-01-17T08:56:22.212Z,864
2018-01-17T08:57:31.397Z,892
2018-01-17T08:58:40.596Z,1052
2018-01-17T08:59:50.378Z,1296
2018-01-17T09:00:59.843Z,1256
2018-01-17T09:02:09.590Z,1304
2018-01-17T09:03:19.058Z,1488
2018-01-17T09:04:28.515Z,1648
2018-01-17T09:05:38.508Z,1604
2018-01-17T09:06:48.503Z,1072
2018-01-17T09:07:58.231Z,460
2018-01-17T09:09:07.751Z,296
2018-01-17T09:10:17.234Z,332
2018-01-17T09:11:26.442Z,492
2018-01-17T09:12:35.924Z,452
2018-01-17T09:13:45.387Z,336
2018-01-17T09:14:55.373Z,376
2018-01-17T09:16:05.396Z,392
2018-01-17T09:17:15.393Z,380
2018-01-17T09:18:25.127Z,336
2018-01-17T09:19:34.349Z,284
2018-01-17T09:20:44.092Z,208
2018-01-17T09:21:53.312Z,260
2018-01-17T09:23:03.090Z,376
2018-01-17T09:24:12.826Z,384
2018-01-17T09:25:22.560Z,516
2018-01-17T09:26:32.024Z,744
2018-01-17T09:27:40.952Z,880
2018-01-17T09:28:50.752Z,732
2018-01-17T09:29:59.942Z,684
2018-01-17T09:31:09.942Z,608
2018-01-17T09:32:19.968Z,516
2018-01-17T09:33:29.438Z,440
2018-01-17T09:34:38.895Z,392
2018-01-17T09:35:48.094Z,384
2018-01-17T09:36:57.818Z,304
2018-01-17T09:38:06.749Z,316
2018-01-17T09:39:16.479Z,484
2018-01-17T09:40:26.482Z,848
2018-01-17T09:41:35.677Z,852
2018-01-17T09:42:45.131Z,624
2018-01-17T09:43:54.343Z,760
2018-01-17T09:45:03.797Z,900
2018-01-17T09:46:13.000Z,928
2018-01-17T09:47:22.859Z,652
2018-01-17T09:48:32.053Z,540
2018-01-17T09:49:41.762Z,392
2018-01-17T09:50:51.480Z,460
2018-01-17T09:52:00.935Z,484
2018-01-17T09:53:10.395Z,524
2018-01-17T09:54:19.866Z,676
2018-01-17T09:55:29.326Z,432
2018-01-17T09:56:38.782Z,220
2018-01-17T09:57:48.299Z,176
2018-01-17T09:58:57.494Z,204
2018-01-17T10:00:06.433Z,272
2018-01-17T10:01:15.890Z,464
2018-01-17T10:02:25.665Z,816
2018-01-17T10:03:35.142Z,796
2018-01-17T10:04:44.870Z,752
2018-01-17T10:05:54.342Z,656
2018-01-17T10:07:04.099Z,860
2018-01-17T10:08:13.824Z,1264
2018-01-17T10:09:23.810Z,1080
2018-01-17T10:10:33.321Z,1348
2018-01-17T10:11:42.519Z,1708
2018-01-17T10:12:51.981Z,1720
2018-01-17T10:14:01.703Z,1804
2018-01-17T10:15:11.720Z,1788
2018-01-17T10:16:20.914Z,1872
2018-01-17T10:17:30.380Z,1836
2018-01-17T10:18:39.839Z,1724
2018-01-17T10:19:48.765Z,1668
2018-01-17T10:20:58.229Z,1744
2018-01-17T10:22:07.956Z,1944
2018-01-17T10:23:17.415Z,1784
2018-01-17T10:24:26.877Z,1460
2018-01-17T10:25:36.394Z,1008
2018-01-17T10:26:46.110Z,832
2018-01-17T10:27:55.343Z,576
2018-01-17T10:29:05.079Z,524
2018-01-17T10:30:14.597Z,808
2018-01-17T10:31:23.842Z,1208
2018-01-17T10:32:33.950Z,1088
2018-01-17T10:33:43.147Z,1148
2018-01-17T10:34:52.618Z,1548
2018-01-17T10:36:02.362Z,1600
2018-01-17T10:37:12.475Z,1248
2018-01-17T10:38:21.983Z,1148
2018-01-17T10:39:31.442Z,1152
2018-01-17T10:40:40.666Z,1228
2018-01-17T10:41:50.220Z,1480
2018-01-17T10:42:59.973Z,2032
2018-01-17T10:44:09.993Z,2908
2018-01-17T10:45:19.734Z,2140
2018-01-17T10:46:29.461Z,1780
2018-01-17T10:47:38.924Z,1480
2018-01-17T10:48:48.382Z,668
2018-01-17T10:49:57.847Z,660
2018-01-17T10:51:06.780Z,892
2018-01-17T10:52:16.512Z,708
2018-01-17T10:53:26.269Z,732
2018-01-17T10:54:35.985Z,852
2018-01-17T10:55:45.972Z,848
2018-01-17T10:56:55.525Z,764
2018-01-17T10:58:05.020Z,644
2018-01-17T10:59:14.814Z,568
2018-01-17T11:00:24.849Z,624
2018-01-17T11:01:34.848Z,1004
2018-01-17T11:02:44.320Z,1164
2018-01-17T11:03:53.516Z,1328
2018-01-17T11:05:03.521Z,1080
2018-01-17T11:06:12.718Z,1088
2018-01-17T11:07:21.648Z,1288
2018-01-17T11:08:31.166Z,1176
2018-01-17T11:09:40.417Z,768
2018-01-17T11:10:49.888Z,812
2018-01-17T11:11:59.353Z,988
2018-01-17T11:13:08.833Z,1112
2018-01-17T11:14:18.576Z,820
2018-01-17T11:15:27.860Z,788
2018-01-17T11:16:37.335Z,988
2018-01-17T11:17:46.856Z,1216
2018-01-17T11:18:56.843Z,1552
2018-01-17T11:20:06.102Z,1476
2018-01-17T11:21:15.297Z,1500
2018-01-17T11:22:24.482Z,1280
2018-01-17T11:23:34.218Z,1216
2018-01-17T11:24:44.037Z,1500
2018-01-17T11:25:53.545Z,1292
2018-01-17T11:27:03.064Z,2048
2018-01-17T11:28:12.279Z,1440
2018-01-17T11:29:22.006Z,1220
2018-01-17T11:30:32.004Z,912
2018-01-17T11:31:41.743Z,624
2018-01-17T11:32:51.259Z,532
2018-01-17T11:34:00.728Z,500
2018-01-17T11:35:10.001Z,456
2018-01-17T11:36:19.464Z,380
2018-01-17T11:37:29.185Z,372
2018-01-17T11:38:38.645Z,364
2018-01-17T11:39:48.128Z,372
2018-01-17T11:40:58.139Z,456
2018-01-17T11:42:07.871Z,608
2018-01-17T11:43:17.074Z,720
2018-01-17T11:44:26.537Z,976
2018-01-17T11:45:36.267Z,720
2018-01-17T11:46:45.461Z,680
2018-01-17T11:47:54.992Z,912
2018-01-17T11:49:04.498Z,1016
2018-01-17T11:50:14.352Z,1108
2018-01-17T11:51:24.132Z,1496
2018-01-17T11:52:33.596Z,1312
2018-01-17T11:53:43.334Z,1176
2018-01-17T11:54:52.269Z,1028
2018-01-17T11:56:01.821Z,1280
2018-01-17T11:57:11.120Z,1320
2018-01-17T11:58:20.616Z,1240
2018-01-17T11:59:29.911Z,1052
2018-01-17T12:00:39.936Z,1076
2018-01-17T12:01:49.388Z,1248
2018-01-17T12:02:59.197Z,1248
2018-01-17T12:04:08.667Z,1144
2018-01-17T12:05:18.134Z,1136
2018-01-17T12:06:27.706Z,1296
2018-01-17T12:07:37.191Z,2484
2018-01-17T12:08:46.705Z,2880
2018-01-17T12:09:56.846Z,1772
2018-01-17T12:11:06.930Z,780
2018-01-17T12:12:16.792Z,712
2018-01-17T12:13:26.546Z,604
2018-01-17T12:14:37.121Z,584
2018-01-17T12:15:46.826Z,420
2018-01-17T12:16:56.299Z,408
2018-01-17T12:18:06.034Z,580
2018-01-17T12:19:15.234Z,984
2018-01-17T12:20:24.703Z,1500
2018-01-17T12:21:34.439Z,1284
2018-01-17T12:22:43.932Z,1080
2018-01-17T12:23:53.730Z,868
2018-01-17T12:25:03.231Z,904
2018-01-17T12:26:12.435Z,880
2018-01-17T12:27:21.905Z,612
2018-01-17T12:28:31.115Z,504
2018-01-17T12:29:40.604Z,396
2018-01-17T12:30:50.446Z,456
2018-01-17T12:32:00.229Z,788
2018-01-17T12:33:09.440Z,1316
2018-01-17T12:34:18.384Z,1984
2018-01-17T12:35:28.178Z,2464
2018-01-17T12:36:37.661Z,2440
2018-01-17T12:37:47.554Z,2168
2018-01-17T12:38:57.156Z,1808
2018-01-17T12:40:06.909Z,1568
2018-01-17T12:41:16.576Z,1392
2018-01-17T12:42:25.993Z,1604
2018-01-17T12:43:35.747Z,1588
2018-01-17T12:44:45.484Z,1756
2018-01-17T12:45:54.475Z,2228
2018-01-17T12:47:03.809Z,2452
2018-01-17T12:48:13.616Z,2268
2018-01-17T12:49:23.411Z,2056
2018-01-17T12:50:32.667Z,2072
2018-01-17T12:51:42.155Z,2156
2018-01-17T12:52:51.947Z,2276
2018-01-17T12:54:01.553Z,1852
2018-01-17T12:55:11.376Z,1408
2018-01-17T12:56:20.665Z,1264
2018-01-17T12:57:30.514Z,1224
2018-01-17T12:58:40.289Z,1144
2018-01-17T12:59:49.794Z,992
2018-01-17T13:00:58.996Z,1084
2018-01-17T13:02:08.205Z,1348
2018-01-17T13:03:17.962Z,1160
2018-01-17T13:04:27.429Z,932
2018-01-17T13:05:36.975Z,560
2018-01-17T13:06:46.191Z,492
2018-01-17T13:07:55.193Z,512
2018-01-17T13:09:04.436Z,996
2018-01-17T13:10:13.918Z,1084
2018-01-17T13:11:23.979Z,976
2018-01-17T13:12:33.717Z,776
2018-01-17T13:13:43.132Z,944
2018-01-17T13:14:52.728Z,1052
2018-01-17T13:16:01.971Z,1212
2018-01-17T13:17:11.468Z,1144
2018-01-17T13:18:21.225Z,1060
2018-01-17T13:19:31.222Z,1088
2018-01-17T13:20:40.681Z,832
2018-01-17T13:21:50.220Z,572
2018-01-17T13:22:59.968Z,488
2018-01-17T13:24:09.544Z,620
2018-01-17T13:25:19.191Z,836
2018-01-17T13:26:28.689Z,1064
2018-01-17T13:27:38.426Z,1076
2018-01-17T13:28:47.377Z,1144
2018-01-17T13:29:57.141Z,1240
2018-01-17T13:31:06.639Z,1208
2018-01-17T13:32:15.621Z,1220
2018-01-17T13:33:25.102Z,1388
2018-01-17T13:34:34.936Z,1428
2018-01-17T13:35:44.457Z,1408
2018-01-17T13:36:53.427Z,1380
2018-01-17T13:38:03.331Z,1856
2018-01-17T13:39:13.150Z,1692
2018-01-17T13:40:22.631Z,1268
2018-01-17T13:41:32.685Z,1280
2018-01-17T13:42:42.809Z,1504
2018-01-17T13:43:52.031Z,1444
2018-01-17T13:45:01.271Z,1320
2018-01-17T13:46:11.035Z,1240
2018-01-17T13:47:20.322Z,1500
2018-01-17T13:48:30.464Z,1276
2018-01-17T13:49:39.954Z,1252
2018-01-17T13:50:49.946Z,1168
2018-01-17T13:51:59.413Z,1232
2018-01-17T13:53:09.065Z,1440
2018-01-17T13:54:18.838Z,1428
2018-01-17T13:55:28.492Z,1468
2018-01-17T13:56:38.289Z,1572
2018-01-17T13:57:48.092Z,1696
2018-01-17T13:58:57.896Z,1888
2018-01-17T14:00:07.134Z,1708
2018-01-17T14:01:16.340Z,2408
2018-01-17T14:02:26.337Z,2636
2018-01-17T14:03:36.064Z,1892
2018-01-17T14:04:45.553Z,1644
2018-01-17T14:05:55.702Z,1612
2018-01-17T14:07:04.953Z,1564
2018-01-17T14:08:14.170Z,1488
2018-01-17T14:09:23.438Z,1460
2018-01-17T14:10:33.261Z,1016
2018-01-17T14:11:41.929Z,1012
2018-01-17T14:12:50.877Z,1420
2018-01-17T14:13:59.811Z,1536
2018-01-17T14:15:09.336Z,1764
2018-01-17T14:16:18.539Z,1624
2018-01-17T14:17:28.151Z,1984
2018-01-17T14:18:37.967Z,2248
2018-01-17T14:19:47.533Z,2440
2018-01-17T14:20:57.061Z,1620
2018-01-17T14:22:06.571Z,1436
2018-01-17T14:23:16.123Z,1276
2018-01-17T14:24:25.322Z,1148
2018-01-17T14:25:34.578Z,1088
2018-01-17T14:26:44.363Z,1024
2018-01-17T14:27:53.633Z,1008
2018-01-17T14:29:03.460Z,944
2018-01-17T14:30:13.201Z,928
2018-01-17T14:31:23.212Z,844
2018-01-17T14:32:33.275Z,768
2018-01-17T14:33:42.552Z,764
2018-01-17T14:34:52.641Z,684
2018-01-17T14:36:02.404Z,608
2018-01-17T14:37:12.262Z,528
2018-01-17T14:38:21.524Z,500
2018-01-17T14:39:31.574Z,448
2018-01-17T14:40:41.308Z,364
2018-01-17T14:41:50.507Z,256
2018-01-17T14:43:00.041Z,212
2018-01-17T14:44:09.768Z,172
2018-01-17T14:45:18.721Z,116
2018-01-17T14:46:28.180Z,100
2018-01-17T14:47:37.650Z,136
2018-01-17T14:48:47.396Z,128
2018-01-17T14:49:56.876Z,84
2018-01-17T14:51:06.073Z,60
2018-01-17T14:52:15.264Z,56
2018-01-17T14:53:24.488Z,56
2018-01-17T14:54:34.230Z,80
2018-01-17T14:55:43.420Z,172
2018-01-17T14:56:52.350Z,316
2018-01-17T14:58:02.073Z,376
2018-01-17T14:59:11.284Z,304
2018-01-17T15:00:20.808Z,276
2018-01-17T15:01:30.006Z,264
2018-01-17T15:02:39.212Z,288
2018-01-17T15:03:49.017Z,324
2018-01-17T15:04:58.478Z,316
2018-01-17T15:06:08.197Z,304
2018-01-17T15:07:17.681Z,292
2018-01-17T15:08:26.624Z,248
2018-01-17T15:09:36.128Z,268
2018-01-17T15:10:45.884Z,316
2018-01-17T15:11:55.403Z,332
2018-01-17T15:13:04.873Z,308
2018-01-17T15:14:14.347Z,224
2018-01-17T15:15:24.177Z,188
2018-01-17T15:16:33.116Z,228
2018-01-17T15:17:42.313Z,244
2018-01-17T15:18:52.355Z,312
2018-01-17T15:20:01.547Z,392
2018-01-17T15:21:11.152Z,464
2018-01-17T15:22:21.150Z,496
2018-01-17T15:23:30.896Z,452
2018-01-17T15:24:40.653Z,416
2018-01-17T15:25:50.141Z,372
2018-01-17T15:26:59.868Z,328
2018-01-17T15:28:09.618Z,300
2018-01-17T15:29:18.550Z,236
2018-01-17T15:30:28.888Z,212
2018-01-17T15:31:38.127Z,232
2018-01-17T15:32:47.320Z,264
2018-01-17T15:33:56.786Z,272
2018-01-17T15:35:05.989Z,236
2018-01-17T15:36:15.711Z,216
2018-01-17T15:37:24.973Z,216
2018-01-17T15:38:34.697Z,200
2018-01-17T15:39:44.433Z,180
2018-01-17T15:40:54.189Z,152
2018-01-17T15:42:03.383Z,128
2018-01-17T15:43:13.138Z,100
2018-01-17T15:44:22.071Z,80
2018-01-17T15:45:31.322Z,72
2018-01-17T15:46:40.521Z,100
2018-01-17T15:47:49.719Z,136
2018-01-17T15:48:59.250Z,136
2018-01-17T15:50:09.006Z,128
2018-01-17T15:51:18.734Z,124
2018-01-17T15:52:28.198Z,116
2018-01-17T15:53:37.925Z,104
2018-01-17T15:54:47.863Z,92
2018-01-17T15:55:57.419Z,84
2018-01-17T15:57:07.062Z,76
2018-01-17T15:58:17.440Z,68
2018-01-17T15:59:27.215Z,60
2018-01-17T16:00:36.689Z,52
2018-01-17T16:01:46.147Z,48
2018-01-17T16:02:55.926Z,40
2018-01-17T16:04:05.806Z,32
2018-01-17T16:05:14.888Z,32
2018-01-17T16:06:24.791Z,28
2018-01-17T16:07:34.215Z,28
2018-01-17T16:08:43.941Z,20
2018-01-17T16:09:53.889Z,16
2018-01-17T16:11:04.078Z,16
2018-01-17T16:12:13.720Z,16
2018-01-17T16:13:23.430Z,12
2018-01-17T16:14:33.362Z,12
2018-01-17T16:15:43.020Z,12
2018-01-17T16:16:52.661Z,12
2018-01-17T16:18:02.580Z,12
2018-01-17T16:19:12.163Z,8
2018-01-17T16:20:22.098Z,8
2018-01-17T16:21:32.037Z,8
2018-01-17T16:22:41.783Z,4
2018-01-17T16:23:51.509Z,4
2018-01-17T16:25:00.716Z,4